sensor_id;sensor_type;location;lat;lon;timestamp;noise_LAeq;noise_LA_min;noise_LA_max;noise_LA01;noise_LA95
72466;Laerm;60471;52.150;4.508;2023-02-01T00:00:25;49.44;43.81;63.18;;
72466;Laerm;60471;52.150;4.508;2023-02-01T00:02:51;53.21;42.47;68.31;;
72466;Laerm;60471;52.150;4.508;2023-02-01T00:05:17;54.21;44.63;81.76;;
72466;Laerm;60471;52.150;4.508;2023-02-01T00:07:47;50.57;43.38;69.57;;
72466;Laerm;60471;52.150;4.508;2023-02-01T00:10:15;49.90;42.46;73.89;;
72466;Laerm;60471;52.150;4.508;2023-02-01T00:12:42;48.30;42.58;65.94;;
72466;Laerm;60471;52.150;4.508;2023-02-01T00:15:08;54.04;43.45;79.99;;
72466;Laerm;60471;52.150;4.508;2023-02-01T00:17:35;50.35;43.30;74.06;;
72466;Laerm;60471;52.150;4.508;2023-02-01T00:20:02;49.53;43.37;71.98;;
72466;Laerm;60471;52.150;4.508;2023-02-01T00:22:29;50.02;41.78;71.69;;
72466;Laerm;60471;52.150;4.508;2023-02-01T00:24:55;48.71;42.61;66.33;;
72466;Laerm;60471;52.150;4.508;2023-02-01T00:27:21;51.54;42.96;67.90;;
72466;Laerm;60471;52.150;4.508;2023-02-01T00:29:48;53.43;42.19;78.46;;
72466;Laerm;60471;52.150;4.508;2023-02-01T00:32:14;48.20;41.14;62.77;;
72466;Laerm;60471;52.150;4.508;2023-02-01T00:34:40;48.79;43.04;61.73;;
72466;Laerm;60471;52.150;4.508;2023-02-01T00:37:07;50.02;44.17;75.98;;
72466;Laerm;60471;52.150;4.508;2023-02-01T00:39:33;52.60;42.11;72.05;;
72466;Laerm;60471;52.150;4.508;2023-02-01T00:42:00;50.02;43.10;73.04;;
72466;Laerm;60471;52.150;4.508;2023-02-01T00:44:27;48.88;42.28;70.04;;
72466;Laerm;60471;52.150;4.508;2023-02-01T00:46:54;54.17;41.90;76.97;;
72466;Laerm;60471;52.150;4.508;2023-02-01T00:49:20;52.84;42.35;80.91;;
72466;Laerm;60471;52.150;4.508;2023-02-01T00:51:46;48.51;41.99;64.47;;
72466;Laerm;60471;52.150;4.508;2023-02-01T00:54:13;49.23;42.85;68.43;;
72466;Laerm;60471;52.150;4.508;2023-02-01T00:56:39;49.27;41.49;64.82;;
72466;Laerm;60471;52.150;4.508;2023-02-01T00:59:05;53.51;42.01;76.14;;
72466;Laerm;60471;52.150;4.508;2023-02-01T01:01:31;53.93;42.22;74.41;;
72466;Laerm;60471;52.150;4.508;2023-02-01T01:03:59;49.51;42.56;74.97;;
72466;Laerm;60471;52.150;4.508;2023-02-01T01:06:29;48.09;42.58;67.75;;
72466;Laerm;60471;52.150;4.508;2023-02-01T01:08:59;48.04;42.32;68.04;;
72466;Laerm;60471;52.150;4.508;2023-02-01T01:11:30;48.13;42.88;64.90;;
72466;Laerm;60471;52.150;4.508;2023-02-01T01:13:59;58.45;42.67;87.69;;
72466;Laerm;60471;52.150;4.508;2023-02-01T01:16:28;51.48;43.02;80.72;;
72466;Laerm;60471;52.150;4.508;2023-02-01T01:18:56;47.53;41.80;58.24;;
72466;Laerm;60471;52.150;4.508;2023-02-01T01:21:23;48.39;41.89;66.44;;
72466;Laerm;60471;52.150;4.508;2023-02-01T01:23:49;50.67;41.56;73.28;;
72466;Laerm;60471;52.150;4.508;2023-02-01T01:26:20;50.87;42.41;72.73;;
72466;Laerm;60471;52.150;4.508;2023-02-01T01:28:46;53.90;42.35;79.12;;
72466;Laerm;60471;52.150;4.508;2023-02-01T01:31:15;48.28;41.76;67.52;;
72466;Laerm;60471;52.150;4.508;2023-02-01T01:33:41;50.31;42.86;72.33;;
72466;Laerm;60471;52.150;4.508;2023-02-01T01:36:11;49.43;43.04;68.48;;
72466;Laerm;60471;52.150;4.508;2023-02-01T01:38:41;54.74;43.05;81.23;;
72466;Laerm;60471;52.150;4.508;2023-02-01T01:41:13;50.08;42.65;74.36;;
72466;Laerm;60471;52.150;4.508;2023-02-01T01:44:55;53.93;42.33;82.36;;
72466;Laerm;60471;52.150;4.508;2023-02-01T01:47:04;53.27;42.76;81.55;;
72466;Laerm;60471;52.150;4.508;2023-02-01T01:49:30;49.58;43.30;71.21;;
72466;Laerm;60471;52.150;4.508;2023-02-01T01:52:01;50.96;44.24;75.87;;
72466;Laerm;60471;52.150;4.508;2023-02-01T01:54:55;53.34;42.77;81.73;;
72466;Laerm;60471;52.150;4.508;2023-02-01T01:57:51;51.97;44.21;72.10;;
72466;Laerm;60471;52.150;4.508;2023-02-01T02:00:20;49.67;43.58;65.43;;
72466;Laerm;60471;52.150;4.508;2023-02-01T02:02:54;54.18;45.23;73.51;;
72466;Laerm;60471;52.150;4.508;2023-02-01T02:05:22;55.18;43.23;83.24;;
72466;Laerm;60471;52.150;4.508;2023-02-01T02:07:52;50.20;42.92;69.86;;
72466;Laerm;60471;52.150;4.508;2023-02-01T02:10:19;49.68;42.13;65.88;;
72466;Laerm;60471;52.150;4.508;2023-02-01T02:12:48;50.14;42.50;64.91;;
72466;Laerm;60471;52.150;4.508;2023-02-01T02:15:16;51.50;44.04;67.45;;
72466;Laerm;60471;52.150;4.508;2023-02-01T02:18:01;48.15;42.77;63.35;;
72466;Laerm;60471;52.150;4.508;2023-02-01T02:26:56;51.58;43.27;70.27;;
72466;Laerm;60471;52.150;4.508;2023-02-01T02:29:54;51.82;42.65;74.21;;
72466;Laerm;60471;52.150;4.508;2023-02-01T02:33:22;48.42;43.16;64.97;;
72466;Laerm;60471;52.150;4.508;2023-02-01T02:36:29;48.80;43.20;70.40;;
72466;Laerm;60471;52.150;4.508;2023-02-01T02:39:23;52.39;43.50;75.28;;
72466;Laerm;60471;52.150;4.508;2023-02-01T02:42:50;48.77;43.76;62.48;;
72466;Laerm;60471;52.150;4.508;2023-02-01T02:45:47;49.29;43.46;67.77;;
72466;Laerm;60471;52.150;4.508;2023-02-01T02:48:59;58.71;43.95;89.07;;
72466;Laerm;60471;52.150;4.508;2023-02-01T02:51:41;53.55;44.70;75.50;;
72466;Laerm;60471;52.150;4.508;2023-02-01T02:54:39;51.37;43.60;76.96;;
72466;Laerm;60471;52.150;4.508;2023-02-01T02:57:20;49.95;44.05;64.22;;
72466;Laerm;60471;52.150;4.508;2023-02-01T03:00:14;50.18;44.15;67.16;;
72466;Laerm;60471;52.150;4.508;2023-02-01T03:03:01;56.30;45.01;82.04;;
72466;Laerm;60471;52.150;4.508;2023-02-01T03:05:49;53.69;44.54;75.01;;
72466;Laerm;60471;52.150;4.508;2023-02-01T03:08:21;50.30;43.50;67.58;;
72466;Laerm;60471;52.150;4.508;2023-02-01T03:11:10;52.09;43.70;73.08;;
72466;Laerm;60471;52.150;4.508;2023-02-01T03:14:00;49.71;44.46;63.76;;
72466;Laerm;60471;52.150;4.508;2023-02-01T03:16:51;55.20;44.99;73.36;;
72466;Laerm;60471;52.150;4.508;2023-02-01T03:19:40;53.27;45.38;67.90;;
72466;Laerm;60471;52.150;4.508;2023-02-01T03:22:14;55.61;45.71;79.50;;
72466;Laerm;60471;52.150;4.508;2023-02-01T03:24:56;49.83;44.99;69.66;;
72466;Laerm;60471;52.150;4.508;2023-02-01T03:30:13;55.77;44.34;81.57;;
72466;Laerm;60471;52.150;4.508;2023-02-01T03:32:47;50.58;45.22;63.82;;
72466;Laerm;60471;52.150;4.508;2023-02-01T03:35:39;63.05;44.77;93.41;;
72466;Laerm;60471;52.150;4.508;2023-02-01T03:38:29;55.30;44.59;79.50;;
72466;Laerm;60471;52.150;4.508;2023-02-01T03:41:12;50.64;44.85;70.17;;
72466;Laerm;60471;52.150;4.508;2023-02-01T03:46:48;54.61;46.16;72.89;;
72466;Laerm;60471;52.150;4.508;2023-02-01T03:49:26;59.18;45.67;85.07;;
72466;Laerm;60471;52.150;4.508;2023-02-01T03:51:56;60.55;46.77;83.60;;
72466;Laerm;60471;52.150;4.508;2023-02-01T03:54:25;53.34;46.16;75.47;;
72466;Laerm;60471;52.150;4.508;2023-02-01T03:56:56;52.78;45.30;77.67;;
72466;Laerm;60471;52.150;4.508;2023-02-01T03:59:23;53.39;45.01;71.86;;
72466;Laerm;60471;52.150;4.508;2023-02-01T04:01:50;53.13;45.62;75.42;;
72466;Laerm;60471;52.150;4.508;2023-02-01T04:04:16;51.90;46.04;60.90;;
72466;Laerm;60471;52.150;4.508;2023-02-01T04:06:47;51.77;46.08;69.45;;
72466;Laerm;60471;52.150;4.508;2023-02-01T04:09:14;53.47;47.34;72.33;;
72466;Laerm;60471;52.150;4.508;2023-02-01T04:11:40;50.84;45.65;67.73;;
72466;Laerm;60471;52.150;4.508;2023-02-01T04:14:07;51.00;45.39;67.74;;
72466;Laerm;60471;52.150;4.508;2023-02-01T04:16:33;51.28;47.24;58.17;;
72466;Laerm;60471;52.150;4.508;2023-02-01T04:19:00;52.15;47.06;68.04;;
72466;Laerm;60471;52.150;4.508;2023-02-01T04:21:27;55.49;46.70;78.82;;
72466;Laerm;60471;52.150;4.508;2023-02-01T04:23:54;55.46;47.95;78.43;;
72466;Laerm;60471;52.150;4.508;2023-02-01T04:26:20;54.87;48.15;71.35;;
72466;Laerm;60471;52.150;4.508;2023-02-01T04:28:47;55.14;48.05;79.60;;
72466;Laerm;60471;52.150;4.508;2023-02-01T04:31:15;52.97;46.57;67.78;;
72466;Laerm;60471;52.150;4.508;2023-02-01T04:33:43;51.92;46.99;70.67;;
72466;Laerm;60471;52.150;4.508;2023-02-01T04:36:09;52.60;48.06;68.07;;
72466;Laerm;60471;52.150;4.508;2023-02-01T04:38:36;55.49;47.48;74.42;;
72466;Laerm;60471;52.150;4.508;2023-02-01T04:41:02;55.04;48.88;69.03;;
72466;Laerm;60471;52.150;4.508;2023-02-01T04:43:28;55.61;49.24;74.64;;
72466;Laerm;60471;52.150;4.508;2023-02-01T04:45:54;56.58;49.48;81.77;;
72466;Laerm;60471;52.150;4.508;2023-02-01T04:48:20;54.83;49.35;71.11;;
72466;Laerm;60471;52.150;4.508;2023-02-01T04:50:48;55.37;47.93;67.21;;
72466;Laerm;60471;52.150;4.508;2023-02-01T04:53:15;55.06;48.99;66.85;;
72466;Laerm;60471;52.150;4.508;2023-02-01T04:55:43;56.09;49.74;77.05;;
72466;Laerm;60471;52.150;4.508;2023-02-01T04:58:10;58.19;49.64;82.61;;
72466;Laerm;60471;52.150;4.508;2023-02-01T05:00:37;55.73;49.32;78.85;;
72466;Laerm;60471;52.150;4.508;2023-02-01T05:03:03;54.38;50.49;71.21;;
72466;Laerm;60471;52.150;4.508;2023-02-01T05:05:30;54.26;49.26;71.23;;
72466;Laerm;60471;52.150;4.508;2023-02-01T05:07:56;57.75;51.31;70.67;;
72466;Laerm;60471;52.150;4.508;2023-02-01T05:10:24;55.46;49.87;77.13;;
72466;Laerm;60471;52.150;4.508;2023-02-01T05:12:50;57.09;50.00;77.28;;
72466;Laerm;60471;52.150;4.508;2023-02-01T05:15:35;54.48;49.48;67.42;;
72466;Laerm;60471;52.150;4.508;2023-02-01T05:18:02;57.40;49.73;75.69;;
72466;Laerm;60471;52.150;4.508;2023-02-01T05:20:28;56.38;50.51;69.34;;
72466;Laerm;60471;52.150;4.508;2023-02-01T05:22:55;57.55;50.48;72.76;;
72466;Laerm;60471;52.150;4.508;2023-02-01T05:25:21;58.20;50.39;79.33;;
72466;Laerm;60471;52.150;4.508;2023-02-01T05:27:47;55.46;50.41;67.03;;
72466;Laerm;60471;52.150;4.508;2023-02-01T05:30:14;57.24;51.04;74.12;;
72466;Laerm;60471;52.150;4.508;2023-02-01T05:32:40;56.68;50.78;67.04;;
72466;Laerm;60471;52.150;4.508;2023-02-01T05:35:07;57.95;51.13;72.59;;
72466;Laerm;60471;52.150;4.508;2023-02-01T05:37:34;56.76;50.97;72.70;;
72466;Laerm;60471;52.150;4.508;2023-02-01T05:40:00;58.51;50.91;72.42;;
72466;Laerm;60471;52.150;4.508;2023-02-01T05:42:26;60.23;52.37;69.55;;
72466;Laerm;60471;52.150;4.508;2023-02-01T05:44:52;57.92;51.37;81.08;;
72466;Laerm;60471;52.150;4.508;2023-02-01T05:47:19;57.32;49.96;66.96;;
72466;Laerm;60471;52.150;4.508;2023-02-01T05:49:46;55.47;49.77;65.54;;
72466;Laerm;60471;52.150;4.508;2023-02-01T05:52:12;58.52;50.91;69.92;;
72466;Laerm;60471;52.150;4.508;2023-02-01T05:54:39;58.82;50.73;68.94;;
72466;Laerm;60471;52.150;4.508;2023-02-01T05:57:05;55.37;50.24;65.82;;
72466;Laerm;60471;52.150;4.508;2023-02-01T05:59:31;56.99;50.12;72.13;;
72466;Laerm;60471;52.150;4.508;2023-02-01T06:01:57;58.98;52.01;67.44;;
72466;Laerm;60471;52.150;4.508;2023-02-01T06:04:23;55.19;50.45;71.59;;
72466;Laerm;60471;52.150;4.508;2023-02-01T06:06:50;58.40;51.10;70.72;;
72466;Laerm;60471;52.150;4.508;2023-02-01T06:09:16;58.39;50.48;71.73;;
72466;Laerm;60471;52.150;4.508;2023-02-01T06:11:42;58.81;52.24;72.12;;
72466;Laerm;60471;52.150;4.508;2023-02-01T06:14:08;58.18;51.70;74.09;;
72466;Laerm;60471;52.150;4.508;2023-02-01T06:16:35;58.78;51.38;68.15;;
72466;Laerm;60471;52.150;4.508;2023-02-01T06:19:01;59.24;51.91;68.41;;
72466;Laerm;60471;52.150;4.508;2023-02-01T06:21:27;58.85;51.84;68.43;;
72466;Laerm;60471;52.150;4.508;2023-02-01T06:23:54;57.35;50.26;68.96;;
72466;Laerm;60471;52.150;4.508;2023-02-01T06:26:20;57.76;51.33;78.54;;
72466;Laerm;60471;52.150;4.508;2023-02-01T06:28:47;59.17;51.12;71.30;;
72466;Laerm;60471;52.150;4.508;2023-02-01T06:31:13;58.88;51.58;68.57;;
72466;Laerm;60471;52.150;4.508;2023-02-01T06:33:39;58.49;51.84;78.54;;
72466;Laerm;60471;52.150;4.508;2023-02-01T06:36:09;58.34;50.46;67.54;;
72466;Laerm;60471;52.150;4.508;2023-02-01T06:38:35;60.10;52.21;85.88;;
72466;Laerm;60471;52.150;4.508;2023-02-01T06:41:02;58.60;51.86;80.21;;
72466;Laerm;60471;52.150;4.508;2023-02-01T06:43:30;58.12;51.26;68.82;;
72466;Laerm;60471;52.150;4.508;2023-02-01T06:46:06;60.22;51.58;72.95;;
72466;Laerm;60471;52.150;4.508;2023-02-01T06:48:33;59.54;52.63;71.41;;
72466;Laerm;60471;52.150;4.508;2023-02-01T06:51:00;60.52;51.86;84.70;;
72466;Laerm;60471;52.150;4.508;2023-02-01T06:53:26;58.54;50.90;67.24;;
72466;Laerm;60471;52.150;4.508;2023-02-01T06:56:02;58.92;52.09;67.93;;
72466;Laerm;60471;52.150;4.508;2023-02-01T06:58:32;59.97;52.73;69.27;;
72466;Laerm;60471;52.150;4.508;2023-02-01T07:01:05;59.18;53.07;74.15;;
72466;Laerm;60471;52.150;4.508;2023-02-01T07:03:32;58.76;51.77;67.67;;
72466;Laerm;60471;52.150;4.508;2023-02-01T07:05:58;58.49;52.31;69.42;;
72466;Laerm;60471;52.150;4.508;2023-02-01T07:08:28;59.43;52.18;81.64;;
72466;Laerm;60471;52.150;4.508;2023-02-01T07:10:54;59.93;52.02;85.13;;
72466;Laerm;60471;52.150;4.508;2023-02-01T07:13:20;59.34;52.39;73.85;;
72466;Laerm;60471;52.150;4.508;2023-02-01T07:15:47;60.16;52.68;68.75;;
72466;Laerm;60471;52.150;4.508;2023-02-01T07:18:14;59.79;53.59;66.31;;
72466;Laerm;60471;52.150;4.508;2023-02-01T07:20:42;58.99;53.16;68.60;;
72466;Laerm;60471;52.150;4.508;2023-02-01T07:23:10;59.46;52.27;74.10;;
72466;Laerm;60471;52.150;4.508;2023-02-01T07:25:36;60.24;53.68;70.52;;
72466;Laerm;60471;52.150;4.508;2023-02-01T07:28:02;60.17;53.56;76.19;;
72466;Laerm;60471;52.150;4.508;2023-02-01T07:30:28;58.85;52.83;69.75;;
72466;Laerm;60471;52.150;4.508;2023-02-01T07:32:54;61.39;52.96;81.50;;
72466;Laerm;60471;52.150;4.508;2023-02-01T07:35:21;60.22;52.66;80.33;;
72466;Laerm;60471;52.150;4.508;2023-02-01T07:37:47;59.28;51.86;83.82;;
72466;Laerm;60471;52.150;4.508;2023-02-01T07:40:13;62.55;51.95;78.65;;
72466;Laerm;60471;52.150;4.508;2023-02-01T07:42:39;60.10;52.35;70.13;;
72466;Laerm;60471;52.150;4.508;2023-02-01T07:45:06;59.84;51.70;72.93;;
72466;Laerm;60471;52.150;4.508;2023-02-01T07:47:32;58.98;51.55;77.96;;
72466;Laerm;60471;52.150;4.508;2023-02-01T07:49:59;61.50;54.07;81.76;;
72466;Laerm;60471;52.150;4.508;2023-02-01T07:52:28;61.34;52.83;82.12;;
72466;Laerm;60471;52.150;4.508;2023-02-01T07:54:54;60.99;52.32;72.10;;
72466;Laerm;60471;52.150;4.508;2023-02-01T07:57:20;59.86;52.81;74.31;;
72466;Laerm;60471;52.150;4.508;2023-02-01T07:59:47;61.91;54.11;70.26;;
72466;Laerm;60471;52.150;4.508;2023-02-01T08:02:31;59.27;51.24;72.21;;
72466;Laerm;60471;52.150;4.508;2023-02-01T08:04:57;59.61;53.30;67.93;;
72466;Laerm;60471;52.150;4.508;2023-02-01T08:07:24;59.93;51.89;76.02;;
72466;Laerm;60471;52.150;4.508;2023-02-01T08:09:50;58.91;52.17;72.31;;
72466;Laerm;60471;52.150;4.508;2023-02-01T08:12:16;59.11;52.86;73.23;;
72466;Laerm;60471;52.150;4.508;2023-02-01T08:14:43;61.28;53.07;83.28;;
72466;Laerm;60471;52.150;4.508;2023-02-01T08:17:09;57.29;51.50;72.63;;
72466;Laerm;60471;52.150;4.508;2023-02-01T08:19:35;59.26;51.68;74.04;;
72466;Laerm;60471;52.150;4.508;2023-02-01T08:22:01;61.29;53.83;76.65;;
72466;Laerm;60471;52.150;4.508;2023-02-01T08:24:33;60.26;53.69;79.96;;
72466;Laerm;60471;52.150;4.508;2023-02-01T08:27:01;58.81;52.33;73.96;;
72466;Laerm;60471;52.150;4.508;2023-02-01T08:29:28;58.24;51.88;67.76;;
72466;Laerm;60471;52.150;4.508;2023-02-01T08:31:54;58.92;51.50;75.18;;
72466;Laerm;60471;52.150;4.508;2023-02-01T08:34:21;58.91;52.99;71.08;;
72466;Laerm;60471;52.150;4.508;2023-02-01T08:36:47;58.63;52.12;79.83;;
72466;Laerm;60471;52.150;4.508;2023-02-01T08:39:13;60.50;53.44;76.70;;
72466;Laerm;60471;52.150;4.508;2023-02-01T08:41:40;59.18;51.39;74.30;;
72466;Laerm;60471;52.150;4.508;2023-02-01T08:44:08;59.00;51.78;78.86;;
72466;Laerm;60471;52.150;4.508;2023-02-01T08:46:34;60.56;53.60;76.26;;
72466;Laerm;60471;52.150;4.508;2023-02-01T08:49:00;62.37;53.12;82.32;;
72466;Laerm;60471;52.150;4.508;2023-02-01T08:51:26;59.20;51.82;84.16;;
72466;Laerm;60471;52.150;4.508;2023-02-01T08:53:52;60.25;54.04;73.61;;
72466;Laerm;60471;52.150;4.508;2023-02-01T08:56:19;59.12;51.56;78.88;;
72466;Laerm;60471;52.150;4.508;2023-02-01T08:58:45;59.71;52.64;84.13;;
72466;Laerm;60471;52.150;4.508;2023-02-01T09:01:15;60.35;53.24;69.77;;
72466;Laerm;60471;52.150;4.508;2023-02-01T09:03:42;60.63;53.45;72.19;;
72466;Laerm;60471;52.150;4.508;2023-02-01T09:06:12;59.41;51.87;82.99;;
72466;Laerm;60471;52.150;4.508;2023-02-01T09:08:42;58.69;53.04;69.95;;
72466;Laerm;60471;52.150;4.508;2023-02-01T09:11:14;61.23;53.46;78.50;;
72466;Laerm;60471;52.150;4.508;2023-02-01T09:13:41;58.58;52.69;70.99;;
72466;Laerm;60471;52.150;4.508;2023-02-01T09:16:07;59.19;53.32;72.75;;
72466;Laerm;60471;52.150;4.508;2023-02-01T09:18:35;60.05;53.60;69.47;;
72466;Laerm;60471;52.150;4.508;2023-02-01T09:21:06;59.46;52.80;80.05;;
72466;Laerm;60471;52.150;4.508;2023-02-01T09:23:33;60.73;52.56;81.47;;
72466;Laerm;60471;52.150;4.508;2023-02-01T09:26:02;59.44;53.71;74.01;;
72466;Laerm;60471;52.150;4.508;2023-02-01T09:28:29;60.50;54.34;73.85;;
72466;Laerm;60471;52.150;4.508;2023-02-01T09:30:58;61.40;54.14;78.84;;
72466;Laerm;60471;52.150;4.508;2023-02-01T09:33:26;60.63;53.60;83.35;;
72466;Laerm;60471;52.150;4.508;2023-02-01T09:36:01;60.24;52.23;77.07;;
72466;Laerm;60471;52.150;4.508;2023-02-01T09:38:29;59.91;53.87;78.95;;
72466;Laerm;60471;52.150;4.508;2023-02-01T09:40:57;59.92;53.09;66.99;;
72466;Laerm;60471;52.150;4.508;2023-02-01T09:43:44;61.65;53.31;87.86;;
72466;Laerm;60471;52.150;4.508;2023-02-01T09:48:43;63.16;54.03;78.86;;
72466;Laerm;60471;52.150;4.508;2023-02-01T09:51:24;60.35;53.34;76.35;;
72466;Laerm;60471;52.150;4.508;2023-02-01T09:54:03;61.25;53.69;81.93;;
72466;Laerm;60471;52.150;4.508;2023-02-01T09:57:37;60.99;53.31;86.75;;
72466;Laerm;60471;52.150;4.508;2023-02-01T10:00:25;62.47;55.10;80.64;;
72466;Laerm;60471;52.150;4.508;2023-02-01T10:02:55;60.19;53.90;72.53;;
72466;Laerm;60471;52.150;4.508;2023-02-01T10:08:22;59.14;53.49;77.32;;
72466;Laerm;60471;52.150;4.508;2023-02-01T10:11:07;60.72;53.43;77.84;;
72466;Laerm;60471;52.150;4.508;2023-02-01T10:13:59;60.68;53.69;80.82;;
72466;Laerm;60471;52.150;4.508;2023-02-01T10:16:38;62.55;54.69;78.86;;
72466;Laerm;60471;52.150;4.508;2023-02-01T10:19:28;59.19;52.56;75.81;;
72466;Laerm;60471;52.150;4.508;2023-02-01T10:22:09;62.53;51.28;83.41;;
72466;Laerm;60471;52.150;4.508;2023-02-01T10:24:45;61.86;54.75;82.13;;
72466;Laerm;60471;52.150;4.508;2023-02-01T10:27:23;63.62;54.89;78.90;;
72466;Laerm;60471;52.150;4.508;2023-02-01T10:29:58;61.63;53.13;80.34;;
72466;Laerm;60471;52.150;4.508;2023-02-01T10:32:34;60.34;54.05;76.03;;
72466;Laerm;60471;52.150;4.508;2023-02-01T10:35:31;61.21;55.08;78.89;;
72466;Laerm;60471;52.150;4.508;2023-02-01T10:38:01;62.23;53.58;82.16;;
72466;Laerm;60471;52.150;4.508;2023-02-01T10:40:28;62.52;53.87;82.70;;
72466;Laerm;60471;52.150;4.508;2023-02-01T10:43:00;61.01;53.15;87.04;;
72466;Laerm;60471;52.150;4.508;2023-02-01T10:45:30;66.92;54.66;90.39;;
72466;Laerm;60471;52.150;4.508;2023-02-01T10:48:00;60.57;54.32;74.55;;
72466;Laerm;60471;52.150;4.508;2023-02-01T10:50:44;61.23;52.86;78.02;;
72466;Laerm;60471;52.150;4.508;2023-02-01T10:53:33;63.30;54.34;83.93;;
72466;Laerm;60471;52.150;4.508;2023-02-01T10:56:11;59.65;52.80;76.14;;
72466;Laerm;60471;52.150;4.508;2023-02-01T10:58:47;63.70;54.33;87.81;;
72466;Laerm;60471;52.150;4.508;2023-02-01T11:01:29;61.02;53.67;77.71;;
72466;Laerm;60471;52.150;4.508;2023-02-01T11:04:00;61.90;53.36;82.90;;
72466;Laerm;60471;52.150;4.508;2023-02-01T11:06:35;62.62;52.95;79.13;;
72466;Laerm;60471;52.150;4.508;2023-02-01T11:14:19;61.55;54.98;72.74;;
72466;Laerm;60471;52.150;4.508;2023-02-01T11:17:23;61.25;54.02;82.51;;
72466;Laerm;60471;52.150;4.508;2023-02-01T11:20:00;60.93;54.31;75.96;;
72466;Laerm;60471;52.150;4.508;2023-02-01T11:22:27;61.87;53.13;77.78;;
72466;Laerm;60471;52.150;4.508;2023-02-01T11:24:56;61.47;53.98;74.43;;
72466;Laerm;60471;52.150;4.508;2023-02-01T11:27:25;59.50;53.48;72.27;;
72466;Laerm;60471;52.150;4.508;2023-02-01T11:29:59;61.67;54.89;83.81;;
72466;Laerm;60471;52.150;4.508;2023-02-01T11:32:27;61.29;53.80;81.74;;
72466;Laerm;60471;52.150;4.508;2023-02-01T11:35:04;60.17;53.05;74.05;;
72466;Laerm;60471;52.150;4.508;2023-02-01T11:37:38;59.63;53.81;71.57;;
72466;Laerm;60471;52.150;4.508;2023-02-01T11:42:59;60.84;54.10;77.72;;
72466;Laerm;60471;52.150;4.508;2023-02-01T11:45:31;60.69;53.62;76.16;;
72466;Laerm;60471;52.150;4.508;2023-02-01T11:48:01;61.01;54.42;72.26;;
72466;Laerm;60471;52.150;4.508;2023-02-01T11:56:25;61.24;53.42;80.17;;
72466;Laerm;60471;52.150;4.508;2023-02-01T12:02:30;60.79;53.33;77.87;;
72466;Laerm;60471;52.150;4.508;2023-02-01T12:13:50;61.49;52.91;74.21;;
72466;Laerm;60471;52.150;4.508;2023-02-01T12:22:55;60.09;53.78;75.07;;
72466;Laerm;60471;52.150;4.508;2023-02-01T12:28:04;60.98;53.73;83.08;;
72466;Laerm;60471;52.150;4.508;2023-02-01T12:36:41;61.99;54.05;77.54;;
72466;Laerm;60471;52.150;4.508;2023-02-01T12:39:39;61.98;54.06;80.56;;
72466;Laerm;60471;52.150;4.508;2023-02-01T12:42:17;63.05;55.28;84.72;;
72466;Laerm;60471;52.150;4.508;2023-02-01T12:44:51;61.30;54.33;73.12;;
72466;Laerm;60471;52.150;4.508;2023-02-01T12:47:41;65.29;53.62;93.85;;
72466;Laerm;60471;52.150;4.508;2023-02-01T12:50:26;60.27;52.50;73.62;;
72466;Laerm;60471;52.150;4.508;2023-02-01T12:53:04;63.75;54.53;83.03;;
72466;Laerm;60471;52.150;4.508;2023-02-01T12:55:46;59.72;52.73;74.76;;
72466;Laerm;60471;52.150;4.508;2023-02-01T12:58:40;61.24;53.42;83.08;;
72466;Laerm;60471;52.150;4.508;2023-02-01T13:01:26;61.16;53.65;84.23;;
72466;Laerm;60471;52.150;4.508;2023-02-01T13:04:26;61.39;54.07;83.77;;
72466;Laerm;60471;52.150;4.508;2023-02-01T13:07:16;60.59;54.53;81.93;;
72466;Laerm;60471;52.150;4.508;2023-02-01T13:12:28;61.36;54.88;81.16;;
72466;Laerm;60471;52.150;4.508;2023-02-01T13:15:03;61.98;54.29;78.48;;
72466;Laerm;60471;52.150;4.508;2023-02-01T13:17:33;61.35;53.74;82.61;;
72466;Laerm;60471;52.150;4.508;2023-02-01T13:20:07;59.58;53.10;69.25;;
72466;Laerm;60471;52.150;4.508;2023-02-01T13:22:49;61.29;52.52;76.53;;
72466;Laerm;60471;52.150;4.508;2023-02-01T13:25:47;59.63;52.66;68.84;;
72466;Laerm;60471;52.150;4.508;2023-02-01T13:28:43;61.11;53.99;80.60;;
72466;Laerm;60471;52.150;4.508;2023-02-01T13:31:44;61.09;54.48;73.79;;
72466;Laerm;60471;52.150;4.508;2023-02-01T13:37:31;60.94;53.85;72.08;;
72466;Laerm;60471;52.150;4.508;2023-02-01T13:40:33;62.17;55.19;82.81;;
72466;Laerm;60471;52.150;4.508;2023-02-01T13:43:18;61.51;54.59;71.90;;
72466;Laerm;60471;52.150;4.508;2023-02-01T13:45:53;60.31;53.49;79.01;;
72466;Laerm;60471;52.150;4.508;2023-02-01T13:48:40;64.52;53.57;89.71;;
72466;Laerm;60471;52.150;4.508;2023-02-01T13:51:07;60.58;53.82;72.49;;
72466;Laerm;60471;52.150;4.508;2023-02-01T13:53:36;59.89;53.94;72.91;;
72466;Laerm;60471;52.150;4.508;2023-02-01T13:56:23;60.04;53.41;71.44;;
72466;Laerm;60471;52.150;4.508;2023-02-01T13:58:50;61.54;53.46;77.23;;
72466;Laerm;60471;52.150;4.508;2023-02-01T14:04:04;60.85;52.40;87.36;;
72466;Laerm;60471;52.150;4.508;2023-02-01T14:11:54;59.41;53.34;71.32;;
72466;Laerm;60471;52.150;4.508;2023-02-01T14:19:27;60.58;52.69;73.21;;
72466;Laerm;60471;52.150;4.508;2023-02-01T14:21:56;58.79;52.49;74.21;;
72466;Laerm;60471;52.150;4.508;2023-02-01T14:24:29;58.70;52.09;67.65;;
72466;Laerm;60471;52.150;4.508;2023-02-01T14:27:00;60.38;53.64;77.21;;
72466;Laerm;60471;52.150;4.508;2023-02-01T14:29:40;60.86;53.23;76.31;;
72466;Laerm;60471;52.150;4.508;2023-02-01T14:32:21;60.36;53.01;68.45;;
72466;Laerm;60471;52.150;4.508;2023-02-01T14:34:51;61.90;53.36;83.14;;
72466;Laerm;60471;52.150;4.508;2023-02-01T14:58:42;59.05;51.73;69.14;;
72466;Laerm;60471;52.150;4.508;2023-02-01T15:01:32;60.15;52.78;75.02;;
72466;Laerm;60471;52.150;4.508;2023-02-01T15:04:16;60.04;52.62;76.83;;
72466;Laerm;60471;52.150;4.508;2023-02-01T15:06:57;60.03;52.87;74.94;;
72466;Laerm;60471;52.150;4.508;2023-02-01T15:09:26;60.60;53.89;70.24;;
72466;Laerm;60471;52.150;4.508;2023-02-01T15:12:16;60.17;51.43;73.05;;
72466;Laerm;60471;52.150;4.508;2023-02-01T15:14:47;58.84;52.26;67.96;;
72466;Laerm;60471;52.150;4.508;2023-02-01T15:17:26;59.38;51.90;75.88;;
72466;Laerm;60471;52.150;4.508;2023-02-01T15:20:03;61.77;53.51;74.34;;
72466;Laerm;60471;52.150;4.508;2023-02-01T15:22:31;60.54;53.25;74.93;;
72466;Laerm;60471;52.150;4.508;2023-02-01T15:25:00;61.02;54.05;68.36;;
72466;Laerm;60471;52.150;4.508;2023-02-01T15:27:28;61.07;53.91;70.96;;
72466;Laerm;60471;52.150;4.508;2023-02-01T15:30:06;59.79;52.40;67.45;;
72466;Laerm;60471;52.150;4.508;2023-02-01T15:32:37;59.72;51.98;81.48;;
72466;Laerm;60471;52.150;4.508;2023-02-01T15:35:05;61.92;54.13;88.33;;
72466;Laerm;60471;52.150;4.508;2023-02-01T15:37:51;60.48;53.07;70.54;;
72466;Laerm;60471;52.150;4.508;2023-02-01T15:40:20;60.88;53.10;68.81;;
72466;Laerm;60471;52.150;4.508;2023-02-01T15:42:58;60.32;52.13;79.96;;
72466;Laerm;60471;52.150;4.508;2023-02-01T15:45:28;60.43;53.64;67.90;;
72466;Laerm;60471;52.150;4.508;2023-02-01T15:47:58;61.00;51.99;68.91;;
72466;Laerm;60471;52.150;4.508;2023-02-01T15:50:29;59.72;53.34;75.25;;
72466;Laerm;60471;52.150;4.508;2023-02-01T15:52:56;60.45;51.46;72.25;;
72466;Laerm;60471;52.150;4.508;2023-02-01T15:55:38;60.54;53.61;75.84;;